sensor_id;sensor_type;location;lat;lon;timestamp;P1;durP1;ratioP1;P2;durP2;ratioP2
23232;SDS011;11785;49.500;8.288;2023-05-29T00:01:29;7.53;;;2.75;;
23232;SDS011;11785;49.500;8.288;2023-05-29T00:03:56;5.88;;;2.92;;
23232;SDS011;11785;49.500;8.288;2023-05-29T00:06:22;8.65;;;3.45;;
23232;SDS011;11785;49.500;8.288;2023-05-29T00:08:48;5.38;;;3.10;;
23232;SDS011;11785;49.500;8.288;2023-05-29T00:11:14;8.98;;;2.88;;
23232;SDS011;11785;49.500;8.288;2023-05-29T00:13:39;7.45;;;3.20;;
23232;SDS011;11785;49.500;8.288;2023-05-29T00:16:05;5.70;;;2.88;;
23232;SDS011;11785;49.500;8.288;2023-05-29T00:18:32;8.52;;;3.00;;
23232;SDS011;11785;49.500;8.288;2023-05-29T00:20:58;6.03;;;3.25;;
23232;SDS011;11785;49.500;8.288;2023-05-29T00:23:23;5.20;;;3.15;;
23232;SDS011;11785;49.500;8.288;2023-05-29T00:25:49;10.10;;;3.45;;
23232;SDS011;11785;49.500;8.288;2023-05-29T00:28:14;8.35;;;3.20;;
23232;SDS011;11785;49.500;8.288;2023-05-29T00:30:40;6.95;;;3.13;;
23232;SDS011;11785;49.500;8.288;2023-05-29T00:33:05;5.75;;;2.90;;
23232;SDS011;11785;49.500;8.288;2023-05-29T00:35:31;8.40;;;3.00;;
23232;SDS011;11785;49.500;8.288;2023-05-29T00:37:57;4.22;;;2.90;;
23232;SDS011;11785;49.500;8.288;2023-05-29T00:40:23;8.18;;;3.10;;
23232;SDS011;11785;49.500;8.288;2023-05-29T00:42:49;5.40;;;3.03;;
23232;SDS011;11785;49.500;8.288;2023-05-29T00:45:15;5.40;;;3.45;;
23232;SDS011;11785;49.500;8.288;2023-05-29T00:47:41;5.85;;;3.03;;
23232;SDS011;11785;49.500;8.288;2023-05-29T00:50:08;10.73;;;3.10;;
23232;SDS011;11785;49.500;8.288;2023-05-29T00:52:35;6.30;;;3.65;;
23232;SDS011;11785;49.500;8.288;2023-05-29T00:55:01;7.53;;;3.20;;
23232;SDS011;11785;49.500;8.288;2023-05-29T00:57:28;8.75;;;3.45;;
23232;SDS011;11785;49.500;8.288;2023-05-29T00:59:54;10.85;;;3.55;;
23232;SDS011;11785;49.500;8.288;2023-05-29T01:02:23;8.85;;;3.95;;
23232;SDS011;11785;49.500;8.288;2023-05-29T01:04:49;9.68;;;3.58;;
23232;SDS011;11785;49.500;8.288;2023-05-29T01:07:19;4.97;;;3.22;;
23232;SDS011;11785;49.500;8.288;2023-05-29T01:09:45;8.25;;;3.42;;
23232;SDS011;11785;49.500;8.288;2023-05-29T01:15:13;9.05;;;3.75;;
23232;SDS011;11785;49.500;8.288;2023-05-29T01:20:40;8.52;;;3.35;;
23232;SDS011;11785;49.500;8.288;2023-05-29T01:28:32;6.38;;;2.97;;
23232;SDS011;11785;49.500;8.288;2023-05-29T01:31:05;5.50;;;3.38;;
23232;SDS011;11785;49.500;8.288;2023-05-29T01:33:32;9.43;;;3.38;;
23232;SDS011;11785;49.500;8.288;2023-05-29T01:35:58;7.30;;;3.20;;
23232;SDS011;11785;49.500;8.288;2023-05-29T01:38:23;10.15;;;3.97;;
23232;SDS011;11785;49.500;8.288;2023-05-29T01:40:49;7.45;;;3.15;;
23232;SDS011;11785;49.500;8.288;2023-05-29T01:43:15;6.63;;;3.53;;
23232;SDS011;11785;49.500;8.288;2023-05-29T01:45:41;8.90;;;3.65;;
23232;SDS011;11785;49.500;8.288;2023-05-29T01:48:07;8.52;;;3.53;;
23232;SDS011;11785;49.500;8.288;2023-05-29T01:50:33;9.00;;;3.72;;
23232;SDS011;11785;49.500;8.288;2023-05-29T01:53:00;10.10;;;3.88;;
23232;SDS011;11785;49.500;8.288;2023-05-29T01:55:25;6.22;;;3.78;;
23232;SDS011;11785;49.500;8.288;2023-05-29T01:57:51;8.13;;;3.78;;
23232;SDS011;11785;49.500;8.288;2023-05-29T02:00:18;9.23;;;3.72;;
23232;SDS011;11785;49.500;8.288;2023-05-29T02:02:44;8.38;;;3.70;;
23232;SDS011;11785;49.500;8.288;2023-05-29T02:05:09;7.43;;;3.38;;
23232;SDS011;11785;49.500;8.288;2023-05-29T02:07:35;8.80;;;3.70;;
23232;SDS011;11785;49.500;8.288;2023-05-29T02:10:04;9.00;;;3.85;;
23232;SDS011;11785;49.500;8.288;2023-05-29T02:12:30;11.23;;;4.25;;
23232;SDS011;11785;49.500;8.288;2023-05-29T02:14:56;10.15;;;4.30;;
23232;SDS011;11785;49.500;8.288;2023-05-29T02:17:21;8.50;;;3.88;;
23232;SDS011;11785;49.500;8.288;2023-05-29T02:19:47;8.52;;;3.70;;
23232;SDS011;11785;49.500;8.288;2023-05-29T02:22:12;8.02;;;3.65;;
23232;SDS011;11785;49.500;8.288;2023-05-29T02:24:38;8.73;;;4.10;;
23232;SDS011;11785;49.500;8.288;2023-05-29T02:27:04;6.65;;;3.97;;
23232;SDS011;11785;49.500;8.288;2023-05-29T02:29:30;9.10;;;4.40;;
23232;SDS011;11785;49.500;8.288;2023-05-29T02:31:55;11.50;;;4.40;;
23232;SDS011;11785;49.500;8.288;2023-05-29T02:34:21;9.13;;;4.35;;
23232;SDS011;11785;49.500;8.288;2023-05-29T02:36:50;10.68;;;4.38;;
23232;SDS011;11785;49.500;8.288;2023-05-29T02:39:19;9.63;;;3.58;;
23232;SDS011;11785;49.500;8.288;2023-05-29T02:41:45;8.60;;;3.97;;
23232;SDS011;11785;49.500;8.288;2023-05-29T02:44:11;6.43;;;3.33;;
23232;SDS011;11785;49.500;8.288;2023-05-29T02:46:36;9.30;;;3.53;;
23232;SDS011;11785;49.500;8.288;2023-05-29T02:49:06;5.70;;;3.25;;
23232;SDS011;11785;49.500;8.288;2023-05-29T02:51:31;7.28;;;3.50;;
23232;SDS011;11785;49.500;8.288;2023-05-29T02:53:57;7.57;;;3.17;;
23232;SDS011;11785;49.500;8.288;2023-05-29T02:56:23;6.07;;;3.25;;
23232;SDS011;11785;49.500;8.288;2023-05-29T02:58:49;10.95;;;3.33;;
23232;SDS011;11785;49.500;8.288;2023-05-29T03:01:15;6.53;;;3.60;;
23232;SDS011;11785;49.500;8.288;2023-05-29T03:03:41;6.70;;;3.47;;
23232;SDS011;11785;49.500;8.288;2023-05-29T03:06:07;7.68;;;3.47;;
23232;SDS011;11785;49.500;8.288;2023-05-29T03:08:33;10.43;;;3.88;;
23232;SDS011;11785;49.500;8.288;2023-05-29T03:11:00;5.15;;;3.47;;
23232;SDS011;11785;49.500;8.288;2023-05-29T03:13:25;8.68;;;3.47;;
23232;SDS011;11785;49.500;8.288;2023-05-29T03:15:51;8.10;;;3.75;;
23232;SDS011;11785;49.500;8.288;2023-05-29T03:18:21;10.63;;;3.83;;
23232;SDS011;11785;49.500;8.288;2023-05-29T03:20:47;5.93;;;3.55;;
23232;SDS011;11785;49.500;8.288;2023-05-29T03:23:13;8.27;;;3.20;;
23232;SDS011;11785;49.500;8.288;2023-05-29T03:25:38;6.43;;;3.50;;
23232;SDS011;11785;49.500;8.288;2023-05-29T03:28:04;9.02;;;3.38;;
23232;SDS011;11785;49.500;8.288;2023-05-29T03:30:29;9.88;;;4.00;;
23232;SDS011;11785;49.500;8.288;2023-05-29T03:32:55;7.00;;;3.38;;
23232;SDS011;11785;49.500;8.288;2023-05-29T03:35:20;6.35;;;3.67;;
23232;SDS011;11785;49.500;8.288;2023-05-29T03:37:46;9.05;;;3.08;;
23232;SDS011;11785;49.500;8.288;2023-05-29T03:40:11;5.97;;;3.63;;
23232;SDS011;11785;49.500;8.288;2023-05-29T03:42:37;6.72;;;3.75;;
23232;SDS011;11785;49.500;8.288;2023-05-29T03:45:03;8.13;;;3.55;;
23232;SDS011;11785;49.500;8.288;2023-05-29T03:47:29;9.05;;;4.13;;
23232;SDS011;11785;49.500;8.288;2023-05-29T03:49:55;10.65;;;3.70;;
23232;SDS011;11785;49.500;8.288;2023-05-29T03:52:20;7.78;;;3.45;;
23232;SDS011;11785;49.500;8.288;2023-05-29T03:54:46;7.85;;;3.63;;
23232;SDS011;11785;49.500;8.288;2023-05-29T03:57:11;10.77;;;3.72;;
23232;SDS011;11785;49.500;8.288;2023-05-29T03:59:37;7.10;;;3.90;;
23232;SDS011;11785;49.500;8.288;2023-05-29T04:02:02;8.52;;;3.15;;
23232;SDS011;11785;49.500;8.288;2023-05-29T04:04:28;7.75;;;3.78;;
23232;SDS011;11785;49.500;8.288;2023-05-29T04:06:54;9.75;;;3.47;;
23232;SDS011;11785;49.500;8.288;2023-05-29T04:09:19;7.35;;;3.22;;
23232;SDS011;11785;49.500;8.288;2023-05-29T04:11:45;7.80;;;3.60;;
23232;SDS011;11785;49.500;8.288;2023-05-29T04:14:11;8.70;;;3.67;;
23232;SDS011;11785;49.500;8.288;2023-05-29T04:16:36;8.02;;;4.05;;
23232;SDS011;11785;49.500;8.288;2023-05-29T04:19:02;7.10;;;4.18;;
23232;SDS011;11785;49.500;8.288;2023-05-29T04:21:28;7.30;;;3.47;;
23232;SDS011;11785;49.500;8.288;2023-05-29T04:23:54;8.73;;;4.05;;
23232;SDS011;11785;49.500;8.288;2023-05-29T04:26:20;8.48;;;3.17;;
23232;SDS011;11785;49.500;8.288;2023-05-29T04:28:49;5.18;;;3.40;;
23232;SDS011;11785;49.500;8.288;2023-05-29T04:31:17;5.32;;;3.45;;
23232;SDS011;11785;49.500;8.288;2023-05-29T04:33:43;7.78;;;3.15;;
23232;SDS011;11785;49.500;8.288;2023-05-29T04:36:10;5.43;;;3.03;;
23232;SDS011;11785;49.500;8.288;2023-05-29T04:38:35;9.88;;;4.22;;
23232;SDS011;11785;49.500;8.288;2023-05-29T04:41:02;7.40;;;3.60;;
23232;SDS011;11785;49.500;8.288;2023-05-29T04:43:27;7.25;;;3.65;;
23232;SDS011;11785;49.500;8.288;2023-05-29T04:45:53;5.70;;;3.55;;
23232;SDS011;11785;49.500;8.288;2023-05-29T04:48:18;9.20;;;3.58;;
23232;SDS011;11785;49.500;8.288;2023-05-29T04:50:44;5.28;;;3.10;;
23232;SDS011;11785;49.500;8.288;2023-05-29T04:53:10;7.22;;;3.25;;
23232;SDS011;11785;49.500;8.288;2023-05-29T04:55:36;8.57;;;3.42;;
23232;SDS011;11785;49.500;8.288;2023-05-29T04:58:01;12.27;;;3.63;;
23232;SDS011;11785;49.500;8.288;2023-05-29T05:00:27;9.82;;;3.92;;
23232;SDS011;11785;49.500;8.288;2023-05-29T05:02:53;9.85;;;3.85;;
23232;SDS011;11785;49.500;8.288;2023-05-29T05:05:18;13.02;;;3.65;;
23232;SDS011;11785;49.500;8.288;2023-05-29T05:07:45;9.20;;;3.35;;
23232;SDS011;11785;49.500;8.288;2023-05-29T05:10:10;6.57;;;3.67;;
23232;SDS011;11785;49.500;8.288;2023-05-29T05:12:36;7.38;;;3.45;;
23232;SDS011;11785;49.500;8.288;2023-05-29T05:15:02;5.43;;;3.08;;
23232;SDS011;11785;49.500;8.288;2023-05-29T05:17:28;6.20;;;3.35;;
23232;SDS011;11785;49.500;8.288;2023-05-29T05:19:53;5.35;;;3.15;;
23232;SDS011;11785;49.500;8.288;2023-05-29T05:22:19;5.35;;;3.30;;
23232;SDS011;11785;49.500;8.288;2023-05-29T05:24:45;5.75;;;3.35;;
23232;SDS011;11785;49.500;8.288;2023-05-29T05:27:10;6.55;;;3.65;;
23232;SDS011;11785;49.500;8.288;2023-05-29T05:29:36;9.50;;;3.13;;
23232;SDS011;11785;49.500;8.288;2023-05-29T05:32:02;6.13;;;3.40;;
23232;SDS011;11785;49.500;8.288;2023-05-29T05:34:27;7.00;;;3.08;;
23232;SDS011;11785;49.500;8.288;2023-05-29T05:36:53;7.25;;;3.28;;
23232;SDS011;11785;49.500;8.288;2023-05-29T05:39:18;9.63;;;4.05;;
23232;SDS011;11785;49.500;8.288;2023-05-29T05:41:44;7.95;;;3.20;;
23232;SDS011;11785;49.500;8.288;2023-05-29T05:44:10;8.52;;;4.00;;
23232;SDS011;11785;49.500;8.288;2023-05-29T05:46:35;6.43;;;3.45;;
23232;SDS011;11785;49.500;8.288;2023-05-29T05:49:01;6.05;;;3.90;;
23232;SDS011;11785;49.500;8.288;2023-05-29T05:51:26;6.72;;;3.95;;
23232;SDS011;11785;49.500;8.288;2023-05-29T05:53:52;7.65;;;3.45;;
23232;SDS011;11785;49.500;8.288;2023-05-29T05:56:18;6.78;;;3.45;;
23232;SDS011;11785;49.500;8.288;2023-05-29T05:58:43;7.75;;;3.97;;
23232;SDS011;11785;49.500;8.288;2023-05-29T06:01:09;6.93;;;4.00;;
23232;SDS011;11785;49.500;8.288;2023-05-29T06:03:35;6.20;;;3.75;;
23232;SDS011;11785;49.500;8.288;2023-05-29T06:06:02;15.13;;;4.13;;
23232;SDS011;11785;49.500;8.288;2023-05-29T06:08:28;8.52;;;3.65;;
23232;SDS011;11785;49.500;8.288;2023-05-29T06:10:54;11.52;;;3.60;;
23232;SDS011;11785;49.500;8.288;2023-05-29T06:13:20;7.93;;;4.03;;
23232;SDS011;11785;49.500;8.288;2023-05-29T06:15:46;7.70;;;3.55;;
23232;SDS011;11785;49.500;8.288;2023-05-29T06:18:11;7.93;;;3.90;;
23232;SDS011;11785;49.500;8.288;2023-05-29T06:20:37;11.30;;;4.10;;
23232;SDS011;11785;49.500;8.288;2023-05-29T06:23:03;12.40;;;4.00;;
23232;SDS011;11785;49.500;8.288;2023-05-29T06:25:29;7.78;;;3.70;;
23232;SDS011;11785;49.500;8.288;2023-05-29T06:28:00;7.65;;;3.70;;
23232;SDS011;11785;49.500;8.288;2023-05-29T06:30:27;8.68;;;3.90;;
23232;SDS011;11785;49.500;8.288;2023-05-29T06:32:53;10.05;;;3.70;;
23232;SDS011;11785;49.500;8.288;2023-05-29T06:35:18;7.15;;;3.63;;
23232;SDS011;11785;49.500;8.288;2023-05-29T06:37:45;7.25;;;3.55;;
23232;SDS011;11785;49.500;8.288;2023-05-29T06:40:11;6.82;;;3.45;;
23232;SDS011;11785;49.500;8.288;2023-05-29T06:42:38;7.95;;;3.88;;
23232;SDS011;11785;49.500;8.288;2023-05-29T06:45:03;9.80;;;4.05;;
23232;SDS011;11785;49.500;8.288;2023-05-29T06:47:29;6.18;;;3.85;;
23232;SDS011;11785;49.500;8.288;2023-05-29T06:49:55;7.95;;;3.60;;
23232;SDS011;11785;49.500;8.288;2023-05-29T06:52:20;5.78;;;3.70;;
23232;SDS011;11785;49.500;8.288;2023-05-29T06:54:46;7.43;;;3.97;;
23232;SDS011;11785;49.500;8.288;2023-05-29T06:57:12;7.93;;;3.55;;
23232;SDS011;11785;49.500;8.288;2023-05-29T06:59:37;7.95;;;3.75;;
23232;SDS011;11785;49.500;8.288;2023-05-29T07:02:11;5.93;;;3.60;;
23232;SDS011;11785;49.500;8.288;2023-05-29T07:04:37;8.88;;;4.25;;
23232;SDS011;11785;49.500;8.288;2023-05-29T07:07:02;7.68;;;4.07;;
23232;SDS011;11785;49.500;8.288;2023-05-29T07:09:28;8.70;;;3.72;;
23232;SDS011;11785;49.500;8.288;2023-05-29T07:11:53;10.35;;;4.22;;
23232;SDS011;11785;49.500;8.288;2023-05-29T07:14:19;6.88;;;3.20;;
23232;SDS011;11785;49.500;8.288;2023-05-29T07:16:44;9.38;;;3.72;;
23232;SDS011;11785;49.500;8.288;2023-05-29T07:19:10;7.43;;;3.45;;
23232;SDS011;11785;49.500;8.288;2023-05-29T07:21:38;7.00;;;4.03;;
23232;SDS011;11785;49.500;8.288;2023-05-29T07:24:04;10.15;;;3.50;;
23232;SDS011;11785;49.500;8.288;2023-05-29T07:26:30;7.47;;;3.92;;
23232;SDS011;11785;49.500;8.288;2023-05-29T07:28:55;7.05;;;3.92;;
23232;SDS011;11785;49.500;8.288;2023-05-29T07:31:21;8.65;;;3.72;;
23232;SDS011;11785;49.500;8.288;2023-05-29T07:33:47;8.45;;;3.70;;
23232;SDS011;11785;49.500;8.288;2023-05-29T07:36:15;8.43;;;3.38;;
23232;SDS011;11785;49.500;8.288;2023-05-29T07:38:44;7.13;;;3.67;;
23232;SDS011;11785;49.500;8.288;2023-05-29T07:41:10;8.75;;;3.70;;
23232;SDS011;11785;49.500;8.288;2023-05-29T07:43:35;8.40;;;4.03;;
23232;SDS011;11785;49.500;8.288;2023-05-29T07:46:01;10.10;;;3.33;;
23232;SDS011;11785;49.500;8.288;2023-05-29T07:48:28;7.88;;;3.20;;
23232;SDS011;11785;49.500;8.288;2023-05-29T07:50:54;7.00;;;3.47;;
23232;SDS011;11785;49.500;8.288;2023-05-29T07:53:19;7.07;;;3.20;;
23232;SDS011;11785;49.500;8.288;2023-05-29T07:55:45;5.75;;;3.00;;
23232;SDS011;11785;49.500;8.288;2023-05-29T07:58:10;8.75;;;3.35;;
23232;SDS011;11785;49.500;8.288;2023-05-29T08:00:36;6.43;;;3.35;;
23232;SDS011;11785;49.500;8.288;2023-05-29T08:03:05;8.85;;;3.55;;
23232;SDS011;11785;49.500;8.288;2023-05-29T08:05:31;6.70;;;3.45;;
23232;SDS011;11785;49.500;8.288;2023-05-29T08:07:56;7.15;;;3.60;;
23232;SDS011;11785;49.500;8.288;2023-05-29T08:10:23;5.45;;;3.10;;
23232;SDS011;11785;49.500;8.288;2023-05-29T08:12:49;8.27;;;3.42;;
23232;SDS011;11785;49.500;8.288;2023-05-29T08:15:17;5.47;;;3.03;;
23232;SDS011;11785;49.500;8.288;2023-05-29T08:17:42;4.35;;;3.00;;
23232;SDS011;11785;49.500;8.288;2023-05-29T08:20:08;5.45;;;3.20;;
23232;SDS011;11785;49.500;8.288;2023-05-29T08:22:35;10.45;;;3.45;;
23232;SDS011;11785;49.500;8.288;2023-05-29T08:25:00;9.98;;;3.35;;
23232;SDS011;11785;49.500;8.288;2023-05-29T08:27:26;12.40;;;3.17;;
23232;SDS011;11785;49.500;8.288;2023-05-29T08:29:52;7.50;;;3.50;;
23232;SDS011;11785;49.500;8.288;2023-05-29T08:32:19;6.47;;;2.78;;
23232;SDS011;11785;49.500;8.288;2023-05-29T08:34:45;5.30;;;3.00;;
23232;SDS011;11785;49.500;8.288;2023-05-29T08:37:10;8.55;;;3.00;;
23232;SDS011;11785;49.500;8.288;2023-05-29T08:39:37;11.57;;;3.45;;
23232;SDS011;11785;49.500;8.288;2023-05-29T08:44:48;7.00;;;3.13;;
23232;SDS011;11785;49.500;8.288;2023-05-29T08:47:14;6.28;;;2.92;;
23232;SDS011;11785;49.500;8.288;2023-05-29T08:49:45;9.10;;;3.20;;
23232;SDS011;11785;49.500;8.288;2023-05-29T08:52:19;7.85;;;3.20;;
23232;SDS011;11785;49.500;8.288;2023-05-29T08:54:46;5.53;;;2.85;;
23232;SDS011;11785;49.500;8.288;2023-05-29T08:57:12;4.43;;;3.10;;
23232;SDS011;11785;49.500;8.288;2023-05-29T08:59:42;6.45;;;2.85;;
23232;SDS011;11785;49.500;8.288;2023-05-29T09:02:09;5.35;;;2.92;;
23232;SDS011;11785;49.500;8.288;2023-05-29T09:04:36;5.38;;;3.10;;
23232;SDS011;11785;49.500;8.288;2023-05-29T09:07:02;9.35;;;3.40;;
23232;SDS011;11785;49.500;8.288;2023-05-29T09:09:28;6.97;;;2.72;;
23232;SDS011;11785;49.500;8.288;2023-05-29T09:11:56;6.75;;;2.90;;
23232;SDS011;11785;49.500;8.288;2023-05-29T09:14:35;3.83;;;2.80;;
23232;SDS011;11785;49.500;8.288;2023-05-29T09:17:03;5.55;;;2.65;;
23232;SDS011;11785;49.500;8.288;2023-05-29T09:19:30;7.82;;;3.10;;
23232;SDS011;11785;49.500;8.288;2023-05-29T09:22:06;4.13;;;3.00;;
23232;SDS011;11785;49.500;8.288;2023-05-29T09:24:38;7.10;;;3.03;;
23232;SDS011;11785;49.500;8.288;2023-05-29T09:27:04;6.38;;;2.70;;
23232;SDS011;11785;49.500;8.288;2023-05-29T09:29:33;6.22;;;2.95;;
23232;SDS011;11785;49.500;8.288;2023-05-29T09:32:04;4.18;;;3.00;;
23232;SDS011;11785;49.500;8.288;2023-05-29T09:34:44;5.80;;;3.10;;
23232;SDS011;11785;49.500;8.288;2023-05-29T09:37:10;4.55;;;2.90;;
23232;SDS011;11785;49.500;8.288;2023-05-29T09:39:46;5.80;;;2.60;;
23232;SDS011;11785;49.500;8.288;2023-05-29T09:42:13;9.30;;;3.13;;
23232;SDS011;11785;49.500;8.288;2023-05-29T09:44:42;5.97;;;2.95;;
23232;SDS011;11785;49.500;8.288;2023-05-29T09:47:09;5.75;;;3.20;;
23232;SDS011;11785;49.500;8.288;2023-05-29T09:49:35;4.82;;;3.00;;
23232;SDS011;11785;49.500;8.288;2023-05-29T09:52:06;4.30;;;2.55;;
23232;SDS011;11785;49.500;8.288;2023-05-29T09:54:34;6.00;;;3.05;;
23232;SDS011;11785;49.500;8.288;2023-05-29T09:57:01;6.80;;;2.90;;
23232;SDS011;11785;49.500;8.288;2023-05-29T09:59:29;7.18;;;3.10;;
23232;SDS011;11785;49.500;8.288;2023-05-29T10:02:01;9.15;;;3.03;;
23232;SDS011;11785;49.500;8.288;2023-05-29T10:04:38;7.43;;;3.08;;
23232;SDS011;11785;49.500;8.288;2023-05-29T10:07:27;7.35;;;2.65;;
23232;SDS011;11785;49.500;8.288;2023-05-29T10:10:01;4.70;;;3.20;;
23232;SDS011;11785;49.500;8.288;2023-05-29T10:12:28;10.07;;;2.90;;
23232;SDS011;11785;49.500;8.288;2023-05-29T10:14:57;7.28;;;2.58;;
23232;SDS011;11785;49.500;8.288;2023-05-29T10:17:25;6.82;;;2.90;;
23232;SDS011;11785;49.500;8.288;2023-05-29T10:22:25;5.20;;;2.63;;
23232;SDS011;11785;49.500;8.288;2023-05-29T10:24:52;9.25;;;3.17;;
23232;SDS011;11785;49.500;8.288;2023-05-29T10:27:20;7.13;;;2.88;;
23232;SDS011;11785;49.500;8.288;2023-05-29T10:29:48;6.00;;;3.05;;
23232;SDS011;11785;49.500;8.288;2023-05-29T10:34:56;5.25;;;2.70;;
23232;SDS011;11785;49.500;8.288;2023-05-29T10:40:10;5.35;;;2.92;;
23232;SDS011;11785;49.500;8.288;2023-05-29T10:42:49;7.80;;;2.97;;
23232;SDS011;11785;49.500;8.288;2023-05-29T10:48:35;5.57;;;3.13;;
23232;SDS011;11785;49.500;8.288;2023-05-29T10:50:43;4.32;;;2.90;;
23232;SDS011;11785;49.500;8.288;2023-05-29T10:53:25;8.57;;;3.10;;
23232;SDS011;11785;49.500;8.288;2023-05-29T10:55:55;6.05;;;3.17;;
23232;SDS011;11785;49.500;8.288;2023-05-29T10:58:21;7.88;;;3.53;;
23232;SDS011;11785;49.500;8.288;2023-05-29T11:00:51;8.50;;;3.28;;
23232;SDS011;11785;49.500;8.288;2023-05-29T11:03:29;5.65;;;3.20;;
23232;SDS011;11785;49.500;8.288;2023-05-29T11:06:00;6.93;;;3.17;;
23232;SDS011;11785;49.500;8.288;2023-05-29T11:08:34;8.75;;;3.45;;
23232;SDS011;11785;49.500;8.288;2023-05-29T11:11:01;4.50;;;2.88;;
23232;SDS011;11785;49.500;8.288;2023-05-29T11:13:34;12.82;;;4.07;;
23232;SDS011;11785;49.500;8.288;2023-05-29T11:16:11;9.32;;;3.40;;
23232;SDS011;11785;49.500;8.288;2023-05-29T11:18:55;9.35;;;3.55;;
23232;SDS011;11785;49.500;8.288;2023-05-29T11:24:00;6.50;;;2.92;;
23232;SDS011;11785;49.500;8.288;2023-05-29T11:29:07;3.90;;;2.90;;
23232;SDS011;11785;49.500;8.288;2023-05-29T11:31:36;6.80;;;3.10;;
23232;SDS011;11785;49.500;8.288;2023-05-29T11:34:04;5.82;;;3.05;;
23232;SDS011;11785;49.500;8.288;2023-05-29T11:36:32;5.68;;;2.92;;
23232;SDS011;11785;49.500;8.288;2023-05-29T11:38:58;6.00;;;2.95;;
23232;SDS011;11785;49.500;8.288;2023-05-29T11:41:25;6.40;;;3.10;;
23232;SDS011;11785;49.500;8.288;2023-05-29T11:43:58;4.70;;;3.28;;
23232;SDS011;11785;49.500;8.288;2023-05-29T11:46:26;7.22;;;2.80;;
23232;SDS011;11785;49.500;8.288;2023-05-29T11:48:53;6.75;;;2.97;;
23232;SDS011;11785;49.500;8.288;2023-05-29T11:51:18;4.28;;;2.80;;
23232;SDS011;11785;49.500;8.288;2023-05-29T11:53:46;8.70;;;3.58;;
23232;SDS011;11785;49.500;8.288;2023-05-29T11:56:12;4.72;;;3.03;;
23232;SDS011;11785;49.500;8.288;2023-05-29T11:58:38;7.13;;;3.35;;
23232;SDS011;11785;49.500;8.288;2023-05-29T12:01:05;7.38;;;3.33;;
23232;SDS011;11785;49.500;8.288;2023-05-29T12:03:42;4.57;;;2.83;;
23232;SDS011;11785;49.500;8.288;2023-05-29T12:06:08;5.18;;;3.20;;
23232;SDS011;11785;49.500;8.288;2023-05-29T12:08:35;3.08;;;2.60;;
23232;SDS011;11785;49.500;8.288;2023-05-29T12:11:02;9.35;;;3.00;;
23232;SDS011;11785;49.500;8.288;2023-05-29T12:13:28;7.70;;;3.15;;
23232;SDS011;11785;49.500;8.288;2023-05-29T12:15:56;4.93;;;2.95;;
23232;SDS011;11785;49.500;8.288;2023-05-29T12:18:29;5.80;;;2.60;;
23232;SDS011;11785;49.500;8.288;2023-05-29T12:20:58;4.97;;;2.90;;
23232;SDS011;11785;49.500;8.288;2023-05-29T12:23:27;4.30;;;2.80;;
23232;SDS011;11785;49.500;8.288;2023-05-29T12:25:54;5.30;;;2.67;;
23232;SDS011;11785;49.500;8.288;2023-05-29T12:28:20;4.40;;;3.00;;
23232;SDS011;11785;49.500;8.288;2023-05-29T12:30:47;6.70;;;2.83;;
23232;SDS011;11785;49.500;8.288;2023-05-29T12:33:27;6.82;;;2.70;;
23232;SDS011;11785;49.500;8.288;2023-05-29T12:36:06;4.38;;;2.90;;
23232;SDS011;11785;49.500;8.288;2023-05-29T12:38:50;3.30;;;2.70;;
23232;SDS011;11785;49.500;8.288;2023-05-29T12:41:32;5.40;;;3.30;;
23232;SDS011;11785;49.500;8.288;2023-05-29T12:44:00;4.63;;;2.80;;
23232;SDS011;11785;49.500;8.288;2023-05-29T12:46:27;5.25;;;2.90;;
23232;SDS011;11785;49.500;8.288;2023-05-29T12:49:10;5.13;;;3.03;;
23232;SDS011;11785;49.500;8.288;2023-05-29T12:51:39;3.67;;;2.75;;
23232;SDS011;11785;49.500;8.288;2023-05-29T12:54:06;5.28;;;2.55;;
23232;SDS011;11785;49.500;8.288;2023-05-29T12:56:32;4.32;;;2.92;;
23232;SDS011;11785;49.500;8.288;2023-05-29T12:58:57;4.60;;;2.63;;
23232;SDS011;11785;49.500;8.288;2023-05-29T13:01:23;4.30;;;2.47;;
23232;SDS011;11785;49.500;8.288;2023-05-29T13:03:49;5.72;;;2.85;;
23232;SDS011;11785;49.500;8.288;2023-05-29T13:06:15;6.00;;;2.60;;
23232;SDS011;11785;49.500;8.288;2023-05-29T13:08:41;6.78;;;3.47;;
23232;SDS011;11785;49.500;8.288;2023-05-29T13:11:06;4.80;;;2.40;;
23232;SDS011;11785;49.500;8.288;2023-05-29T13:13:32;6.05;;;2.88;;
23232;SDS011;11785;49.500;8.288;2023-05-29T13:15:57;5.13;;;3.00;;
23232;SDS011;11785;49.500;8.288;2023-05-29T13:18:23;3.67;;;2.67;;
23232;SDS011;11785;49.500;8.288;2023-05-29T13:20:49;4.22;;;2.85;;
23232;SDS011;11785;49.500;8.288;2023-05-29T13:23:14;5.20;;;2.88;;
23232;SDS011;11785;49.500;8.288;2023-05-29T13:25:40;3.15;;;2.53;;
23232;SDS011;11785;49.500;8.288;2023-05-29T13:28:06;4.90;;;2.90;;
23232;SDS011;11785;49.500;8.288;2023-05-29T13:30:31;4.95;;;3.08;;
23232;SDS011;11785;49.500;8.288;2023-05-29T13:32:57;5.97;;;3.10;;
23232;SDS011;11785;49.500;8.288;2023-05-29T13:35:22;6.50;;;2.80;;
23232;SDS011;11785;49.500;8.288;2023-05-29T13:37:48;5.85;;;2.70;;
23232;SDS011;11785;49.500;8.288;2023-05-29T13:40:14;4.78;;;2.92;;
23232;SDS011;11785;49.500;8.288;2023-05-29T13:42:40;4.95;;;3.00;;
23232;SDS011;11785;49.500;8.288;2023-05-29T13:45:06;4.50;;;2.70;;
23232;SDS011;11785;49.500;8.288;2023-05-29T13:47:33;3.47;;;3.15;;
23232;SDS011;11785;49.500;8.288;2023-05-29T13:49:59;4.68;;;3.45;;
23232;SDS011;11785;49.500;8.288;2023-05-29T13:52:25;4.25;;;2.42;;
23232;SDS011;11785;49.500;8.288;2023-05-29T13:54:51;5.55;;;3.10;;
23232;SDS011;11785;49.500;8.288;2023-05-29T13:57:17;3.50;;;3.00;;
23232;SDS011;11785;49.500;8.288;2023-05-29T13:59:43;3.95;;;3.28;;
23232;SDS011;11785;49.500;8.288;2023-05-29T14:02:08;5.57;;;3.05;;
23232;SDS011;11785;49.500;8.288;2023-05-29T14:04:34;6.68;;;2.92;;
23232;SDS011;11785;49.500;8.288;2023-05-29T14:07:00;2.78;;;2.30;;
23232;SDS011;11785;49.500;8.288;2023-05-29T14:09:25;5.40;;;3.15;;
23232;SDS011;11785;49.500;8.288;2023-05-29T14:11:54;4.00;;;3.10;;
23232;SDS011;11785;49.500;8.288;2023-05-29T14:14:20;6.57;;;2.85;;
23232;SDS011;11785;49.500;8.288;2023-05-29T14:16:46;4.68;;;2.92;;
23232;SDS011;11785;49.500;8.288;2023-05-29T14:19:12;5.63;;;2.67;;
23232;SDS011;11785;49.500;8.288;2023-05-29T14:21:38;4.55;;;2.58;;
23232;SDS011;11785;49.500;8.288;2023-05-29T14:24:03;3.92;;;2.83;;
23232;SDS011;11785;49.500;8.288;2023-05-29T14:26:29;5.30;;;3.10;;
23232;SDS011;11785;49.500;8.288;2023-05-29T14:28:55;6.68;;;3.67;;
23232;SDS011;11785;49.500;8.288;2023-05-29T14:31:21;8.95;;;4.63;;
23232;SDS011;11785;49.500;8.288;2023-05-29T14:33:47;5.45;;;3.03;;
23232;SDS011;11785;49.500;8.288;2023-05-29T14:36:12;4.03;;;2.70;;
23232;SDS011;11785;49.500;8.288;2023-05-29T14:38:38;3.35;;;2.60;;
23232;SDS011;11785;49.500;8.288;2023-05-29T14:41:03;6.88;;;3.10;;
23232;SDS011;11785;49.500;8.288;2023-05-29T14:43:29;4.88;;;3.50;;
23232;SDS011;11785;49.500;8.288;2023-05-29T14:45:54;3.58;;;2.70;;
23232;SDS011;11785;49.500;8.288;2023-05-29T14:48:20;6.13;;;2.92;;
23232;SDS011;11785;49.500;8.288;2023-05-29T14:50:46;3.78;;;3.03;;
23232;SDS011;11785;49.500;8.288;2023-05-29T14:53:14;4.10;;;2.90;;
23232;SDS011;11785;49.500;8.288;2023-05-29T14:55:40;3.35;;;2.72;;
23232;SDS011;11785;49.500;8.288;2023-05-29T14:58:06;4.32;;;3.17;;
23232;SDS011;11785;49.500;8.288;2023-05-29T15:00:31;5.25;;;3.53;;
23232;SDS011;11785;49.500;8.288;2023-05-29T15:02:57;6.88;;;3.35;;
23232;SDS011;11785;49.500;8.288;2023-05-29T15:05:27;5.70;;;3.30;;
23232;SDS011;11785;49.500;8.288;2023-05-29T15:07:53;5.47;;;2.83;;
23232;SDS011;11785;49.500;8.288;2023-05-29T15:10:24;5.43;;;2.92;;
23232;SDS011;11785;49.500;8.288;2023-05-29T15:12:50;9.90;;;3.38;;
23232;SDS011;11785;49.500;8.288;2023-05-29T15:15:22;4.38;;;2.72;;